Charlotte Roush — WDE5112 — position and weather

sailwx.info

Track history (hours):
 
Tides and Currents Weather Stations Pressure Air Temp Water Temp Dewpoint Dewpoint Depression Visibility Wind Speed Wind Dir Waves Ship Positions

Charlotte Roush

Owner: AEP River Operations LLC, Chesterfield, MO. More information available from US FCC via Universal Licensing System and Coast Guard Vessel Documentation Center.

Last reported at 2014-Oct-01 15:33 UTC. Time now 2014-Oct-01 16:22 UTC.
Position N 30°03' W 090°35'.

Length 35 m; draft 3 m.

Type: Towing. MMSI: 367362230.

Date/timePositionNaut miles runAvg speedWind from/ knotsBaromVisibWave heightAir tempDewpointWater temp
2014-Oct-01 15:33N 30°03' W 090°35'0 0.4
2014-Oct-01 14:33N 30°03' W 090°34'0 0.4
2014-Oct-01 13:33N 30°03' W 090°34'0 0.0
2014-Oct-01 12:33N 30°03' W 090°34'2 2.3
2014-Oct-01 11:33N 30°02' W 090°37'0 0.0
2014-Oct-01 10:33N 30°02' W 090°37'0 0.0
2014-Oct-01 09:33N 30°02' W 090°37'0 0.0
2014-Oct-01 08:34N 30°02' W 090°37'1 1.0
2014-Oct-01 07:33N 30°02' W 090°38'5 5.1
2014-Oct-01 06:33N 30°01' W 090°43'5 1.6
2014-Oct-01 03:09N 29°59' W 090°49'0 0.0
2014-Oct-01 02:19N 29°59' W 090°49'0 0.0
2014-Sep-30 23:22N 29°59' W 090°49'2 1.9
2014-Sep-30 22:20N 30°00' W 090°47'10 3.5
2014-Sep-30 19:33N 30°02' W 090°36'4 3.6
2014-Sep-30 18:33N 30°03' W 090°32'1 1.3
2014-Sep-30 17:33N 30°03' W 090°31'1 0.2
2014-Sep-30 10:33N 30°03' W 090°29'0 0.1
2014-Sep-30 09:33N 30°03' W 090°29'0 0.0
2014-Sep-30 08:34N 30°03' W 090°29'0 0.0
2014-Sep-30 07:34N 30°03' W 090°29'0 0.0
2014-Sep-30 06:33N 30°03' W 090°29'0 0.0
2014-Sep-30 05:34N 30°03' W 090°29'0 0.0
2014-Sep-30 04:33N 30°03' W 090°29'0 0.0
2014-Sep-30 03:33N 30°03' W 090°29'0 0.0
2014-Sep-30 02:34N 30°03' W 090°29'0 0.0
2014-Sep-30 01:33N 30°03' W 090°29'5 4.6
2014-Sep-30 00:33N 30°03' W 090°35'3 2.9
2014-Sep-29 23:34N 30°02' W 090°38'10 0.5
2014-Sep-29 00:27N 29°59' W 090°49'0 0.1
2014-Sep-28 22:32N 29°59' W 090°49'3 2.9
2014-Sep-28 21:33N 30°01' W 090°46'3 3.3
2014-Sep-28 20:33N 30°01' W 090°43'3 3.4
2014-Sep-28 19:33N 30°03' W 090°39'3 3.0
2014-Sep-28 18:33N 30°03' W 090°36'3 3.3
2014-Sep-28 17:33N 30°03' W 090°32'3 3.1
2014-Sep-28 16:33N 30°02' W 090°29'3 3.0
2014-Sep-28 15:33N 29°60' W 090°27'8 2.3
2014-Sep-28 12:10N 29°56' W 090°19'0 0.1
2014-Sep-28 09:18N 29°56' W 090°19'0 0.0
2014-Sep-26 23:29N 29°57' W 090°18'5 0.4
2014-Sep-26 12:33N 29°59' W 090°24'0 0.0
2014-Sep-26 11:33N 29°59' W 090°24'0 0.0
2014-Sep-26 10:33N 29°59' W 090°24'2 2.5
2014-Sep-26 09:33N 29°60' W 090°26'0 0.0
2014-Sep-26 08:33N 29°60' W 090°26'2 2.3
2014-Sep-26 07:33N 30°01' W 090°28'5 5.4
2014-Sep-26 06:33N 30°03' W 090°34'6 5.6
2014-Sep-26 05:33N 30°03' W 090°41'6 6.4
2014-Sep-26 04:33N 30°00' W 090°47'0 0.3
2014-Sep-26 03:33N 30°00' W 090°48'0 0.0
2014-Sep-26 02:33N 30°00' W 090°48'3 2.6
2014-Sep-26 01:33N 30°01' W 090°45'1 0.7
2014-Sep-25 23:32N 30°01' W 090°47'9 1.8
2014-Sep-25 18:12N 30°03' W 090°36'2 2.7
2014-Sep-25 17:34N 30°03' W 090°34'0 0.0
2014-Sep-25 16:33N 30°03' W 090°34'2 2.3
2014-Sep-25 15:33N 30°03' W 090°31'11 3.7
2014-Sep-25 12:32N 29°56' W 090°21'0 0.1
2014-Sep-25 11:28N 29°56' W 090°21'0 0.1
2014-Sep-25 10:32N 29°56' W 090°21'0 0.0
2014-Sep-25 09:33N 29°56' W 090°21'0 0.0
2014-Sep-25 06:32N 29°56' W 090°21'0 0.0
2014-Sep-25 04:28N 29°56' W 090°21'2 2.0
2014-Sep-25 03:33N 29°56' W 090°19'1 0.0
2014-Sep-24 12:21N 29°56' W 090°19'2 0.5
2014-Sep-24 07:33N 29°56' W 090°21'0 0.0
2014-Sep-24 04:13N 29°56' W 090°21'3 4.6
2014-Sep-24 03:33N 29°58' W 090°24'5 5.5
2014-Sep-24 02:33N 30°02' W 090°28'6 6.3
2014-Sep-24 01:34N 30°03' W 090°36'5 5.4
2014-Sep-24 00:33N 30°02' W 090°42'5 5.4
2014-Sep-23 23:33N 30°00' W 090°48'10 1.3
2014-Sep-23 15:32N 30°02' W 090°36'4 4.1
2014-Sep-23 14:33N 30°03' W 090°32'7 3.4
2014-Sep-23 12:33N 29°59' W 090°25'4 4.0
2014-Sep-23 11:33N 29°56' W 090°22'0 0.0
2014-Sep-22 11:25N 29°56' W 090°22'5 5.8
2014-Sep-22 10:33N 29°60' W 090°27'5 5.3
2014-Sep-22 09:33N 30°03' W 090°31'6 6.1
2014-Sep-22 08:33N 30°03' W 090°38'6 6.1
2014-Sep-22 07:33N 30°01' W 090°45'3 0.8
2014-Sep-22 04:33N 30°00' W 090°48'1 0.6
2014-Sep-22 03:28N 29°59' W 090°48'  
Track history (hours):
 
Tides and Currents Weather Stations Pressure Air Temp Water Temp Dewpoint Dewpoint Depression Visibility Wind Speed Wind Dir Waves Ship Positions

Charlotte Roush

Owner: AEP River Operations LLC, Chesterfield, MO. More information available from US FCC via Universal Licensing System and Coast Guard Vessel Documentation Center.

Last reported at 2014-Oct-01 15:33 UTC. Time now 2014-Oct-01 16:22 UTC.
Position N 30°03' W 090°35'.

Length 35 m; draft 3 m.

Type: Towing. MMSI: 367362230.

Date/timePositionNaut miles runAvg speedWind from/ knotsBaromVisibWave heightAir tempDewpointWater temp
2014-Oct-01 15:33N 30°03' W 090°35'0 0.4
2014-Oct-01 14:33N 30°03' W 090°34'0 0.4
2014-Oct-01 13:33N 30°03' W 090°34'0 0.0
2014-Oct-01 12:33N 30°03' W 090°34'2 2.3
2014-Oct-01 11:33N 30°02' W 090°37'0 0.0
2014-Oct-01 10:33N 30°02' W 090°37'0 0.0
2014-Oct-01 09:33N 30°02' W 090°37'0 0.0
2014-Oct-01 08:34N 30°02' W 090°37'1 1.0
2014-Oct-01 07:33N 30°02' W 090°38'5 5.1
2014-Oct-01 06:33N 30°01' W 090°43'5 1.6
2014-Oct-01 03:09N 29°59' W 090°49'0 0.0
2014-Oct-01 02:19N 29°59' W 090°49'0 0.0
2014-Sep-30 23:22N 29°59' W 090°49'2 1.9
2014-Sep-30 22:20N 30°00' W 090°47'10 3.5
2014-Sep-30 19:33N 30°02' W 090°36'4 3.6
2014-Sep-30 18:33N 30°03' W 090°32'1 1.3
2014-Sep-30 17:33N 30°03' W 090°31'1 0.2
2014-Sep-30 10:33N 30°03' W 090°29'0 0.1
2014-Sep-30 09:33N 30°03' W 090°29'0 0.0
2014-Sep-30 08:34N 30°03' W 090°29'0 0.0
2014-Sep-30 07:34N 30°03' W 090°29'0 0.0
2014-Sep-30 06:33N 30°03' W 090°29'0 0.0
2014-Sep-30 05:34N 30°03' W 090°29'0 0.0
2014-Sep-30 04:33N 30°03' W 090°29'0 0.0
2014-Sep-30 03:33N 30°03' W 090°29'0 0.0
2014-Sep-30 02:34N 30°03' W 090°29'0 0.0
2014-Sep-30 01:33N 30°03' W 090°29'5 4.6
2014-Sep-30 00:33N 30°03' W 090°35'3 2.9
2014-Sep-29 23:34N 30°02' W 090°38'10 0.5
2014-Sep-29 00:27N 29°59' W 090°49'0 0.1
2014-Sep-28 22:32N 29°59' W 090°49'3 2.9
2014-Sep-28 21:33N 30°01' W 090°46'3 3.3
2014-Sep-28 20:33N 30°01' W 090°43'3 3.4
2014-Sep-28 19:33N 30°03' W 090°39'3 3.0
2014-Sep-28 18:33N 30°03' W 090°36'3 3.3
2014-Sep-28 17:33N 30°03' W 090°32'3 3.1
2014-Sep-28 16:33N 30°02' W 090°29'3 3.0
2014-Sep-28 15:33N 29°60' W 090°27'8 2.3
2014-Sep-28 12:10N 29°56' W 090°19'0 0.1
2014-Sep-28 09:18N 29°56' W 090°19'0 0.0
2014-Sep-26 23:29N 29°57' W 090°18'5 0.4
2014-Sep-26 12:33N 29°59' W 090°24'0 0.0
2014-Sep-26 11:33N 29°59' W 090°24'0 0.0
2014-Sep-26 10:33N 29°59' W 090°24'2 2.5
2014-Sep-26 09:33N 29°60' W 090°26'0 0.0
2014-Sep-26 08:33N 29°60' W 090°26'2 2.3
2014-Sep-26 07:33N 30°01' W 090°28'5 5.4
2014-Sep-26 06:33N 30°03' W 090°34'6 5.6
2014-Sep-26 05:33N 30°03' W 090°41'6 6.4
2014-Sep-26 04:33N 30°00' W 090°47'0 0.3
2014-Sep-26 03:33N 30°00' W 090°48'0 0.0
2014-Sep-26 02:33N 30°00' W 090°48'3 2.6
2014-Sep-26 01:33N 30°01' W 090°45'1 0.7
2014-Sep-25 23:32N 30°01' W 090°47'9 1.8
2014-Sep-25 18:12N 30°03' W 090°36'2 2.7
2014-Sep-25 17:34N 30°03' W 090°34'0 0.0
2014-Sep-25 16:33N 30°03' W 090°34'2 2.3
2014-Sep-25 15:33N 30°03' W 090°31'11 3.7
2014-Sep-25 12:32N 29°56' W 090°21'0 0.1
2014-Sep-25 11:28N 29°56' W 090°21'0 0.1
2014-Sep-25 10:32N 29°56' W 090°21'0 0.0
2014-Sep-25 09:33N 29°56' W 090°21'0 0.0
2014-Sep-25 06:32N 29°56' W 090°21'0 0.0
2014-Sep-25 04:28N 29°56' W 090°21'2 2.0
2014-Sep-25 03:33N 29°56' W 090°19'1 0.0
2014-Sep-24 12:21N 29°56' W 090°19'2 0.5
2014-Sep-24 07:33N 29°56' W 090°21'0 0.0
2014-Sep-24 04:13N 29°56' W 090°21'3 4.6
2014-Sep-24 03:33N 29°58' W 090°24'5 5.5
2014-Sep-24 02:33N 30°02' W 090°28'6 6.3
2014-Sep-24 01:34N 30°03' W 090°36'5 5.4
2014-Sep-24 00:33N 30°02' W 090°42'5 5.4
2014-Sep-23 23:33N 30°00' W 090°48'10 1.3
2014-Sep-23 15:32N 30°02' W 090°36'4 4.1
2014-Sep-23 14:33N 30°03' W 090°32'7 3.4
2014-Sep-23 12:33N 29°59' W 090°25'4 4.0
2014-Sep-23 11:33N 29°56' W 090°22'0 0.0
2014-Sep-22 11:25N 29°56' W 090°22'5 5.8
2014-Sep-22 10:33N 29°60' W 090°27'5 5.3
2014-Sep-22 09:33N 30°03' W 090°31'6 6.1
2014-Sep-22 08:33N 30°03' W 090°38'6 6.1
2014-Sep-22 07:33N 30°01' W 090°45'3 0.8
2014-Sep-22 04:33N 30°00' W 090°48'1 0.6
2014-Sep-22 03:28N 29°59' W 090°48'  

Dump ship's entire track history